createdAt,value
2022-08-24T00:00:10.499Z,28.39
2022-08-24T00:01:10.553Z,28.37
2022-08-24T00:02:11.835Z,28.37
2022-08-24T00:03:10.680Z,28.38
2022-08-24T00:04:10.480Z,28.42
2022-08-24T00:05:14.454Z,28.30
2022-08-24T00:06:10.485Z,28.42
2022-08-24T00:07:21.426Z,28.45
2022-08-24T00:08:10.404Z,28.47
2022-08-24T00:09:10.401Z,28.41
2022-08-24T00:10:10.361Z,28.42
2022-08-24T00:11:10.394Z,28.47
2022-08-24T00:12:10.349Z,28.44
2022-08-24T00:13:10.320Z,28.51
2022-08-24T00:14:10.353Z,28.48
2022-08-24T00:15:10.317Z,28.45
2022-08-24T00:16:10.374Z,28.49
2022-08-24T00:17:10.303Z,28.52
2022-08-24T00:18:10.263Z,28.54
2022-08-24T00:19:10.270Z,28.57
2022-08-24T00:20:10.265Z,28.56
2022-08-24T00:21:10.267Z,28.44
2022-08-24T00:22:10.205Z,28.51
2022-08-24T00:23:10.199Z,28.56
2022-08-24T00:24:10.188Z,28.54
2022-08-24T00:25:10.187Z,28.49
2022-08-24T00:26:10.203Z,28.48
2022-08-24T00:27:10.130Z,28.51
2022-08-24T00:28:10.127Z,28.44
2022-08-24T00:29:10.129Z,28.37
2022-08-24T00:30:10.113Z,28.42
2022-08-24T00:31:10.131Z,28.38
2022-08-24T00:32:10.128Z,28.47
2022-08-24T00:33:10.062Z,28.37
2022-08-24T00:34:10.063Z,28.39
2022-08-24T00:35:10.064Z,28.37
2022-08-24T00:36:10.021Z,28.38
2022-08-24T00:37:10.011Z,28.42
2022-08-24T00:38:09.989Z,28.44
2022-08-24T00:39:09.995Z,28.42
2022-08-24T00:40:10.053Z,28.39
2022-08-24T00:41:10.001Z,28.49
2022-08-24T00:42:09.927Z,28.38
2022-08-24T00:43:09.923Z,28.37
2022-08-24T00:44:09.914Z,28.33
2022-08-24T00:45:09.926Z,28.42
2022-08-24T00:46:09.930Z,28.41
2022-08-24T00:47:09.859Z,28.41
2022-08-24T00:48:09.858Z,28.42
2022-08-24T00:49:09.854Z,28.39
2022-08-24T00:50:09.864Z,28.42
2022-08-24T00:51:09.805Z,28.41
2022-08-24T00:52:09.785Z,28.47
2022-08-24T00:53:09.823Z,28.38
2022-08-24T00:54:09.843Z,28.47
2022-08-24T00:55:09.784Z,28.48
2022-08-24T00:56:09.741Z,28.44
2022-08-24T00:57:09.716Z,28.49
2022-08-24T00:58:11.171Z,28.51
2022-08-24T00:59:09.706Z,28.47
2022-08-24T01:00:09.727Z,28.54
2022-08-24T01:01:09.791Z,28.49
2022-08-24T01:02:15.607Z,28.51
2022-08-24T01:03:09.654Z,28.51
2022-08-24T01:04:09.651Z,28.56
2022-08-24T01:05:09.644Z,28.48
2022-08-24T01:06:09.610Z,28.48
2022-08-24T01:07:09.626Z,28.59
2022-08-24T01:08:09.586Z,28.47
2022-08-24T01:09:09.591Z,28.54
2022-08-24T01:10:09.581Z,28.49
2022-08-24T01:11:09.551Z,28.44
2022-08-24T01:12:09.523Z,28.52
2022-08-24T01:13:09.515Z,28.44
2022-08-24T01:14:09.511Z,28.44
2022-08-24T01:15:09.513Z,28.32
2022-08-24T01:16:09.531Z,28.32
2022-08-24T01:17:09.446Z,28.39
2022-08-24T01:18:09.450Z,28.37
2022-08-24T01:19:09.446Z,28.47
2022-08-24T01:20:09.440Z,28.41
2022-08-24T01:21:09.400Z,28.42
2022-08-24T01:22:09.382Z,28.38
2022-08-24T01:23:09.377Z,28.32
2022-08-24T01:24:09.378Z,28.41
2022-08-24T01:25:09.378Z,28.30
2022-08-24T01:26:09.333Z,28.29
2022-08-24T01:27:09.308Z,28.30
2022-08-24T01:28:09.314Z,28.26
2022-08-24T01:29:09.303Z,28.26
2022-08-24T01:30:09.313Z,28.27
2022-08-24T01:31:09.278Z,28.32
2022-08-24T01:32:09.247Z,28.26
2022-08-24T01:33:09.241Z,28.23
2022-08-24T01:34:09.223Z,28.22
2022-08-24T01:35:09.225Z,28.26
2022-08-24T01:36:09.210Z,28.25
2022-08-24T01:37:09.169Z,28.27
2022-08-24T01:38:09.178Z,28.25
2022-08-24T01:39:09.176Z,28.26
2022-08-24T01:40:09.202Z,28.20
2022-08-24T01:41:09.118Z,28.30
2022-08-24T01:42:09.104Z,28.26
2022-08-24T01:43:09.108Z,28.26
2022-08-24T01:44:09.105Z,28.29
2022-08-24T01:45:09.095Z,28.25
2022-08-24T01:46:09.118Z,28.29
2022-08-24T01:47:09.035Z,28.29
2022-08-24T01:48:09.019Z,28.22
2022-08-24T01:49:09.064Z,28.26
2022-08-24T01:50:08.996Z,28.30
2022-08-24T01:51:08.980Z,28.32
2022-08-24T01:52:08.965Z,28.29
2022-08-24T01:53:08.959Z,28.33
2022-08-24T01:54:08.966Z,28.38
2022-08-24T01:55:08.953Z,28.39
2022-08-24T01:56:08.918Z,28.38
2022-08-24T01:57:08.894Z,28.45
2022-08-24T01:58:08.883Z,28.39
2022-08-24T01:59:08.882Z,28.56
2022-08-24T02:00:08.886Z,28.49
2022-08-24T02:01:08.859Z,28.51
2022-08-24T02:02:08.865Z,28.49
2022-08-24T02:03:08.878Z,28.51
2022-08-24T02:04:09.648Z,28.42
2022-08-24T02:05:08.816Z,28.48
2022-08-24T02:06:08.778Z,28.47
2022-08-24T02:07:08.763Z,28.51
2022-08-24T02:08:08.761Z,28.49
2022-08-24T02:09:08.759Z,28.54
2022-08-24T02:10:08.767Z,28.52
2022-08-24T02:11:08.780Z,28.52
2022-08-24T02:12:08.695Z,28.54
2022-08-24T02:13:08.694Z,28.49
2022-08-24T02:14:08.695Z,28.51
2022-08-24T02:15:08.670Z,28.49
2022-08-24T02:16:08.696Z,28.42
2022-08-24T02:17:08.623Z,28.45
2022-08-24T02:18:08.620Z,28.47
2022-08-24T02:19:08.665Z,28.48
2022-08-24T02:20:08.619Z,28.42
2022-08-24T02:21:08.588Z,28.41
2022-08-24T02:22:08.565Z,28.44
2022-08-24T02:23:08.559Z,28.49
2022-08-24T02:24:08.560Z,28.39
2022-08-24T02:25:08.605Z,28.48
2022-08-24T02:26:08.508Z,28.33
2022-08-24T02:27:08.489Z,28.39
2022-08-24T02:28:08.513Z,28.49
2022-08-24T02:29:08.485Z,28.44
2022-08-24T02:30:08.492Z,28.37
2022-08-24T02:31:08.514Z,28.44
2022-08-24T02:32:08.453Z,28.39
2022-08-24T02:33:08.433Z,28.42
2022-08-24T02:34:08.419Z,28.33
2022-08-24T02:35:08.408Z,28.41
2022-08-24T02:36:25.112Z,28.37
2022-08-24T02:37:08.359Z,28.39
2022-08-24T02:38:08.350Z,28.37
2022-08-24T02:39:08.348Z,28.41
2022-08-24T02:40:08.371Z,28.39
2022-08-24T02:41:08.306Z,28.37
2022-08-24T02:42:08.281Z,28.32
2022-08-24T02:43:08.291Z,28.44
2022-08-24T02:44:08.268Z,28.39
2022-08-24T02:45:08.242Z,28.41
2022-08-24T02:46:08.302Z,28.42
2022-08-24T02:47:08.217Z,28.30
2022-08-24T02:48:08.220Z,28.39
2022-08-24T02:49:10.675Z,28.42
2022-08-24T02:50:08.210Z,28.56
2022-08-24T02:51:08.178Z,28.47
2022-08-24T02:52:08.151Z,28.54
2022-08-24T02:53:08.151Z,28.52
2022-08-24T02:54:08.135Z,28.51
2022-08-24T02:55:08.144Z,28.51
2022-08-24T02:56:08.099Z,28.54
2022-08-24T02:57:08.083Z,28.52
2022-08-24T02:58:08.077Z,28.69
2022-08-24T02:59:08.082Z,28.62
2022-08-24T03:00:10.187Z,28.62
2022-08-24T03:01:13.678Z,28.67
2022-08-24T03:02:08.008Z,28.66
2022-08-24T03:03:08.035Z,28.74
2022-08-24T03:04:08.010Z,28.63
2022-08-24T03:05:08.014Z,28.72
2022-08-24T03:06:07.967Z,28.67
2022-08-24T03:07:07.944Z,28.72
2022-08-24T03:08:07.945Z,28.75
2022-08-24T03:09:07.947Z,28.75
2022-08-24T03:10:07.929Z,28.70
2022-08-24T03:11:07.909Z,28.79
2022-08-24T03:12:07.876Z,28.78
2022-08-24T03:13:07.883Z,28.82
2022-08-24T03:14:07.883Z,28.82
2022-08-24T03:15:07.884Z,28.86
2022-08-24T03:16:07.952Z,28.86
2022-08-24T03:17:07.815Z,28.84
2022-08-24T03:18:07.817Z,28.82
2022-08-24T03:19:07.799Z,28.88
2022-08-24T03:20:07.809Z,28.94
2022-08-24T03:21:07.808Z,28.96
2022-08-24T03:22:07.753Z,28.96
2022-08-24T03:23:07.740Z,29.02
2022-08-24T03:24:07.740Z,28.97
2022-08-24T03:25:07.730Z,28.96
2022-08-24T03:26:07.736Z,29.01
2022-08-24T03:27:08.222Z,28.96
2022-08-24T03:28:10.962Z,29.02
2022-08-24T03:29:07.684Z,28.96
2022-08-24T03:30:07.676Z,29.02
2022-08-24T03:31:07.701Z,28.98
2022-08-24T03:32:07.619Z,29.02
2022-08-24T03:33:07.604Z,28.96
2022-08-24T03:34:07.617Z,28.97
2022-08-24T03:35:07.611Z,29.02
2022-08-24T03:36:10.108Z,29.04
2022-08-24T03:37:07.575Z,29.10
2022-08-24T03:38:07.535Z,29.10
2022-08-24T03:39:07.537Z,29.05
2022-08-24T03:40:07.613Z,29.08
2022-08-24T03:41:07.501Z,29.07
2022-08-24T03:42:07.474Z,29.07
2022-08-24T03:43:07.468Z,28.97
2022-08-24T03:44:07.461Z,29.05
2022-08-24T03:45:07.458Z,29.10
2022-08-24T03:46:07.624Z,29.07
2022-08-24T03:47:07.421Z,29.08
2022-08-24T03:48:07.399Z,29.02
2022-08-24T03:49:07.389Z,29.01
2022-08-24T03:50:07.397Z,28.93
2022-08-24T03:51:07.393Z,28.98
2022-08-24T03:52:07.346Z,28.96
2022-08-24T03:53:07.338Z,29.01
2022-08-24T03:54:07.327Z,28.94
2022-08-24T03:55:07.349Z,29.02
2022-08-24T03:56:07.301Z,28.93
2022-08-24T03:57:07.294Z,28.91
2022-08-24T03:58:07.268Z,28.97
2022-08-24T03:59:07.261Z,28.98
2022-08-24T04:00:07.250Z,28.98
2022-08-24T04:01:07.307Z,28.94
2022-08-24T04:02:07.327Z,29.02
2022-08-24T04:03:07.317Z,29.01
2022-08-24T04:04:07.194Z,29.01
2022-08-24T04:05:07.209Z,29.07
2022-08-24T04:06:07.163Z,29.07
2022-08-24T04:07:07.142Z,29.05
2022-08-24T04:08:07.128Z,29.08
2022-08-24T04:09:07.133Z,29.12
2022-08-24T04:10:07.124Z,29.16
2022-08-24T04:11:07.113Z,29.17
2022-08-24T04:12:07.145Z,29.13
2022-08-24T04:13:07.144Z,29.14
2022-08-24T04:14:07.065Z,29.14
2022-08-24T04:15:07.057Z,29.17
2022-08-24T04:16:07.124Z,29.20
2022-08-24T04:17:07.069Z,29.07
2022-08-24T04:18:07.005Z,29.24
2022-08-24T04:19:06.998Z,29.24
2022-08-24T04:20:06.992Z,29.22
2022-08-24T04:21:06.986Z,29.22
2022-08-24T04:22:07.004Z,29.23
2022-08-24T04:23:06.938Z,29.23
2022-08-24T04:24:06.929Z,29.16
2022-08-24T04:25:09.083Z,29.26
2022-08-24T04:26:06.932Z,29.26
2022-08-24T04:27:06.922Z,29.26
2022-08-24T04:28:06.889Z,29.24
2022-08-24T04:29:08.116Z,29.36
2022-08-24T04:30:06.859Z,29.36
2022-08-24T04:31:06.872Z,29.31
2022-08-24T04:32:06.894Z,29.27
2022-08-24T04:33:06.803Z,29.35
2022-08-24T04:34:06.791Z,29.32
2022-08-24T04:35:06.798Z,29.32
2022-08-24T04:36:06.791Z,29.32
2022-08-24T04:37:11.238Z,29.32
2022-08-24T04:38:06.744Z,29.31
2022-08-24T04:39:06.729Z,29.32
2022-08-24T04:40:06.776Z,29.31
2022-08-24T04:41:06.767Z,29.29
2022-08-24T04:42:06.692Z,29.41
2022-08-24T04:43:06.688Z,29.31
2022-08-24T04:44:06.656Z,29.42
2022-08-24T04:45:06.664Z,29.41
2022-08-24T04:46:06.700Z,29.42
2022-08-24T04:47:06.662Z,29.44
2022-08-24T04:48:06.606Z,29.50
2022-08-24T04:49:06.591Z,29.53
2022-08-24T04:50:06.598Z,29.51
2022-08-24T04:51:06.613Z,29.50
2022-08-24T04:52:06.617Z,29.44
2022-08-24T04:53:06.603Z,29.51
2022-08-24T04:54:06.538Z,29.49
2022-08-24T04:55:07.681Z,29.54
2022-08-24T04:56:06.525Z,29.49
2022-08-24T04:57:06.511Z,29.41
2022-08-24T04:58:06.523Z,29.41
2022-08-24T04:59:06.478Z,29.45
2022-08-24T05:00:06.456Z,29.44
2022-08-24T05:01:06.462Z,29.44
2022-08-24T05:02:06.493Z,29.44
2022-08-24T05:03:06.425Z,29.45
2022-08-24T05:04:06.409Z,29.45
2022-08-24T05:05:06.392Z,29.50
2022-08-24T05:06:06.382Z,29.49
2022-08-24T05:07:06.397Z,29.56
2022-08-24T05:08:06.354Z,29.47
2022-08-24T05:09:06.344Z,29.57
2022-08-24T05:10:07.389Z,29.49
2022-08-24T05:11:06.350Z,29.47
2022-08-24T05:12:06.336Z,29.60
2022-08-24T05:13:06.289Z,29.57
2022-08-24T05:14:06.269Z,29.49
2022-08-24T05:15:06.253Z,29.57
2022-08-24T05:16:06.401Z,29.63
2022-08-24T05:17:06.259Z,29.60
2022-08-24T05:18:06.253Z,29.61
2022-08-24T05:19:06.203Z,29.60
2022-08-24T05:20:06.197Z,29.63
2022-08-24T05:21:06.242Z,29.63
2022-08-24T05:22:06.173Z,29.68
2022-08-24T05:23:06.454Z,29.68
2022-08-24T05:24:06.203Z,29.68
2022-08-24T05:25:06.189Z,29.71
2022-08-24T05:26:06.125Z,29.61
2022-08-24T05:27:06.121Z,29.72
2022-08-24T05:28:06.084Z,29.66
2022-08-24T05:29:06.119Z,29.71
2022-08-24T05:30:06.064Z,29.75
2022-08-24T05:31:06.101Z,29.72
2022-08-24T05:32:06.066Z,29.73
2022-08-24T05:33:06.200Z,29.76
2022-08-24T05:34:06.025Z,29.82
2022-08-24T05:35:05.996Z,29.86
2022-08-24T05:36:05.986Z,29.82
2022-08-24T05:37:05.995Z,29.86
2022-08-24T05:38:05.992Z,29.78
2022-08-24T05:39:10.526Z,29.90
2022-08-24T05:40:05.998Z,29.93
2022-08-24T05:41:05.924Z,29.91
2022-08-24T05:42:05.926Z,29.97
2022-08-24T05:43:05.929Z,29.97
2022-08-24T05:44:06.437Z,29.95
2022-08-24T05:45:05.869Z,29.90
2022-08-24T05:46:05.858Z,29.95
2022-08-24T05:47:05.856Z,29.95
2022-08-24T05:48:05.857Z,29.98
2022-08-24T05:49:05.874Z,29.95
2022-08-24T05:50:05.873Z,30.00
2022-08-24T05:51:05.798Z,30.06
2022-08-24T05:52:05.789Z,30.03
2022-08-24T05:53:06.086Z,30.08
2022-08-24T05:54:05.771Z,30.05
2022-08-24T05:55:05.759Z,30.03
2022-08-24T05:56:05.729Z,30.06
2022-08-24T05:57:05.721Z,30.06
2022-08-24T05:58:05.736Z,30.00
2022-08-24T05:59:05.730Z,30.13
2022-08-24T06:00:05.733Z,30.19
2022-08-24T06:01:05.675Z,30.15
2022-08-24T06:02:05.746Z,30.16
2022-08-24T06:03:05.816Z,30.16
2022-08-24T06:04:05.655Z,30.19
2022-08-24T06:05:05.657Z,30.30
2022-08-24T06:06:05.671Z,30.27
2022-08-24T06:07:05.603Z,30.32
2022-08-24T06:08:05.598Z,30.31
2022-08-24T06:09:05.581Z,30.35
2022-08-24T06:10:26.278Z,30.34
2022-08-24T06:11:05.563Z,30.31
2022-08-24T06:12:05.528Z,30.44
2022-08-24T06:13:05.867Z,30.34
2022-08-24T06:14:07.548Z,30.37
2022-08-24T06:15:05.522Z,30.40
2022-08-24T06:16:20.780Z,30.35
2022-08-24T06:17:05.615Z,30.44
2022-08-24T06:18:05.488Z,30.39
2022-08-24T06:19:05.457Z,30.44
2022-08-24T06:20:05.456Z,30.40
2022-08-24T06:21:05.422Z,30.43
2022-08-24T06:22:05.407Z,30.40
2022-08-24T06:23:05.501Z,30.48
2022-08-24T06:24:05.399Z,30.43
2022-08-24T06:25:05.397Z,30.51
2022-08-24T06:26:05.358Z,30.47
2022-08-24T06:27:05.403Z,30.47
2022-08-24T06:28:05.336Z,30.53
2022-08-24T06:29:05.349Z,30.50
2022-08-24T06:30:05.347Z,30.47
2022-08-24T06:31:05.383Z,30.57
2022-08-24T06:32:05.300Z,30.54
2022-08-24T06:33:05.542Z,30.53
2022-08-24T06:34:05.263Z,30.57
2022-08-24T06:35:05.269Z,30.57
2022-08-24T06:36:05.263Z,30.57
2022-08-24T06:37:05.316Z,30.63
2022-08-24T06:38:05.233Z,30.55
2022-08-24T06:39:05.201Z,30.57
2022-08-24T06:40:05.272Z,30.59
2022-08-24T06:41:05.193Z,30.61
2022-08-24T06:42:05.197Z,30.51
2022-08-24T06:43:05.411Z,30.55
2022-08-24T06:44:05.136Z,30.61
2022-08-24T06:45:05.138Z,30.61
2022-08-24T06:46:05.168Z,30.57
2022-08-24T06:47:05.173Z,30.57
2022-08-24T06:48:05.148Z,30.57
2022-08-24T06:49:05.080Z,30.61
2022-08-24T06:50:05.069Z,30.66
2022-08-24T06:51:05.066Z,30.62
2022-08-24T06:52:05.055Z,30.62
2022-08-24T06:53:05.248Z,30.62
2022-08-24T06:54:05.036Z,30.69
2022-08-24T06:55:05.006Z,30.69
2022-08-24T06:56:05.003Z,30.66
2022-08-24T06:57:05.018Z,30.65
2022-08-24T06:58:04.966Z,30.65
2022-08-24T06:59:04.992Z,30.65
2022-08-24T07:00:04.941Z,30.69
2022-08-24T07:01:04.938Z,30.59
2022-08-24T07:02:05.022Z,30.61
2022-08-24T07:03:05.128Z,30.65
2022-08-24T07:04:04.904Z,30.57
2022-08-24T07:05:04.898Z,30.61
2022-08-24T07:06:04.953Z,30.59
2022-08-24T07:07:04.861Z,30.66
2022-08-24T07:08:04.881Z,30.57
2022-08-24T07:09:04.832Z,30.59
2022-08-24T07:10:04.877Z,30.63
2022-08-24T07:11:04.809Z,30.63
2022-08-24T07:12:04.816Z,30.65
2022-08-24T07:13:05.125Z,30.68
2022-08-24T07:14:04.793Z,30.70
2022-08-24T07:15:04.826Z,30.70
2022-08-24T07:16:04.852Z,30.72
2022-08-24T07:17:04.738Z,30.66
2022-08-24T07:18:04.729Z,30.75
2022-08-24T07:19:04.733Z,30.72
2022-08-24T07:20:04.751Z,30.73
2022-08-24T07:21:04.703Z,30.84
2022-08-24T07:22:04.671Z,30.78
2022-08-24T07:23:05.055Z,30.72
2022-08-24T07:24:04.672Z,30.80
2022-08-24T07:25:04.636Z,30.81
2022-08-24T07:26:04.669Z,30.75
2022-08-24T07:27:04.625Z,30.69
2022-08-24T07:28:09.356Z,30.77
2022-08-24T07:29:04.608Z,30.75
2022-08-24T07:30:25.903Z,30.72
2022-08-24T07:31:04.606Z,30.83
2022-08-24T07:32:04.555Z,30.81
2022-08-24T07:33:04.542Z,30.68
2022-08-24T07:34:04.546Z,30.73
2022-08-24T07:35:04.542Z,30.87
2022-08-24T07:36:04.503Z,30.84
2022-08-24T07:37:04.510Z,30.85
2022-08-24T07:38:04.690Z,30.84
2022-08-24T07:39:04.496Z,30.92
2022-08-24T07:40:04.558Z,30.94
2022-08-24T07:41:36.427Z,30.92
2022-08-24T07:42:14.034Z,30.92
2022-08-24T07:43:04.417Z,31.00
2022-08-24T07:44:04.414Z,31.02
2022-08-24T07:45:04.435Z,30.99
2022-08-24T07:46:04.464Z,31.05
2022-08-24T07:47:27.200Z,31.05
2022-08-24T07:48:04.959Z,31.10
2022-08-24T07:49:12.556Z,31.03
2022-08-24T07:50:04.355Z,31.07
2022-08-24T07:51:04.496Z,31.09
2022-08-24T07:52:04.370Z,31.09
2022-08-24T07:53:04.521Z,31.14
2022-08-24T07:54:04.285Z,31.25
2022-08-24T07:55:04.283Z,31.09
2022-08-24T07:56:04.271Z,31.22
2022-08-24T07:57:04.295Z,31.17
2022-08-24T07:58:04.309Z,31.12
2022-08-24T07:59:04.256Z,31.21
2022-08-24T08:00:05.047Z,31.21
2022-08-24T08:01:04.448Z,31.18
2022-08-24T08:02:04.212Z,31.21
2022-08-24T08:03:04.485Z,31.21
2022-08-24T08:04:04.209Z,31.24
2022-08-24T08:05:04.181Z,31.15
2022-08-24T08:06:04.159Z,31.18
2022-08-24T08:07:04.153Z,31.22
2022-08-24T08:08:04.279Z,31.20
2022-08-24T08:09:04.113Z,31.15
2022-08-24T08:10:04.122Z,31.22
2022-08-24T08:11:04.395Z,31.22
2022-08-24T08:12:04.143Z,31.22
2022-08-24T08:13:04.097Z,31.22
2022-08-24T08:14:04.077Z,31.22
2022-08-24T08:15:04.108Z,31.27
2022-08-24T08:16:06.530Z,31.27
2022-08-24T08:17:04.027Z,31.24
2022-08-24T08:18:04.461Z,31.21
2022-08-24T08:19:11.559Z,31.31
2022-08-24T08:20:03.986Z,31.18
2022-08-24T08:21:03.991Z,31.18
2022-08-24T08:22:03.957Z,31.21
2022-08-24T08:23:03.949Z,31.21
2022-08-24T08:24:03.967Z,31.22
2022-08-24T08:25:03.923Z,31.21
2022-08-24T08:26:03.970Z,31.20
2022-08-24T08:27:03.897Z,31.24
2022-08-24T08:28:12.762Z,31.22
2022-08-24T08:29:03.884Z,31.20
2022-08-24T08:30:03.876Z,31.24
2022-08-24T08:31:03.903Z,31.20
2022-08-24T08:32:03.862Z,31.22
2022-08-24T08:33:03.914Z,31.21
2022-08-24T08:34:03.833Z,31.21
2022-08-24T08:35:03.833Z,31.25
2022-08-24T08:36:03.789Z,31.20
2022-08-24T08:37:03.818Z,31.22
2022-08-24T08:38:03.940Z,31.22
2022-08-24T08:39:03.762Z,31.21
2022-08-24T08:40:03.839Z,31.31
2022-08-24T08:41:03.768Z,31.31
2022-08-24T08:42:03.731Z,31.36
2022-08-24T08:43:03.792Z,31.27
2022-08-24T08:44:03.702Z,31.29
2022-08-24T08:45:03.703Z,31.40
2022-08-24T08:46:03.776Z,31.47
2022-08-24T08:47:03.666Z,31.49
2022-08-24T08:49:03.642Z,31.52
2022-08-24T08:50:03.645Z,31.40
2022-08-24T08:51:03.639Z,31.49
2022-08-24T08:52:03.684Z,31.49
2022-08-24T08:53:03.862Z,31.55
2022-08-24T08:54:03.606Z,31.52
2022-08-24T08:55:03.579Z,31.55
2022-08-24T08:56:03.573Z,31.56
2022-08-24T08:57:03.576Z,31.59
2022-08-24T08:58:03.535Z,31.54
2022-08-24T08:59:03.538Z,31.59
2022-08-24T09:00:03.509Z,31.61
2022-08-24T09:01:04.879Z,31.65
2022-08-24T09:02:03.576Z,31.66
2022-08-24T09:03:03.724Z,31.66
2022-08-24T09:04:03.529Z,31.74
2022-08-24T09:05:03.469Z,31.78
2022-08-24T09:06:03.440Z,31.90
2022-08-24T09:07:03.448Z,31.92
2022-08-24T09:08:03.544Z,31.97
2022-08-24T09:09:03.405Z,32.03
2022-08-24T09:10:03.411Z,32.07
2022-08-24T09:11:03.418Z,32.14
2022-08-24T09:12:03.377Z,32.08
2022-08-24T09:13:03.386Z,32.15
2022-08-24T09:14:03.391Z,32.23
2022-08-24T09:15:03.388Z,32.26
2022-08-24T09:16:07.106Z,32.29
2022-08-24T09:17:03.374Z,32.29
2022-08-24T09:18:03.397Z,32.31
2022-08-24T09:19:03.302Z,32.31
2022-08-24T09:20:03.311Z,32.29
2022-08-24T09:21:03.273Z,32.38
2022-08-24T09:22:03.290Z,32.38
2022-08-24T09:23:03.250Z,32.46
2022-08-24T09:24:03.256Z,32.43
2022-08-24T09:25:03.272Z,32.43
2022-08-24T09:26:03.253Z,32.43
2022-08-24T09:27:03.218Z,32.49
2022-08-24T09:28:03.501Z,32.56
2022-08-24T09:29:03.197Z,32.46
2022-08-24T09:30:03.193Z,32.58
2022-08-24T09:31:03.248Z,32.51
2022-08-24T09:32:03.153Z,32.41
2022-08-24T09:33:03.362Z,32.49
2022-08-24T09:34:03.144Z,32.41
2022-08-24T09:35:03.125Z,32.41
2022-08-24T09:36:03.114Z,32.52
2022-08-24T09:37:03.219Z,32.58
2022-08-24T09:38:03.089Z,32.45
2022-08-24T09:39:03.094Z,32.55
2022-08-24T09:40:03.200Z,32.53
2022-08-24T09:41:03.064Z,32.53
2022-08-24T09:42:03.082Z,32.51
2022-08-24T09:43:03.193Z,32.56
2022-08-24T09:44:03.651Z,32.52
2022-08-24T09:45:03.021Z,32.52
2022-08-24T09:46:03.067Z,32.53
2022-08-24T09:47:02.998Z,32.51
2022-08-24T09:48:02.997Z,32.51
2022-08-24T09:49:03.006Z,32.58
2022-08-24T09:50:02.964Z,32.55
2022-08-24T09:51:02.953Z,32.55
2022-08-24T09:52:02.942Z,32.49
2022-08-24T09:53:03.037Z,32.45
2022-08-24T09:54:02.953Z,32.41
2022-08-24T09:55:02.946Z,32.51
2022-08-24T09:56:02.901Z,32.55
2022-08-24T09:57:12.622Z,32.51
2022-08-24T09:58:02.875Z,32.49
2022-08-24T09:59:02.864Z,32.53
2022-08-24T10:00:02.871Z,32.52
2022-08-24T10:01:02.892Z,32.52
2022-08-24T10:02:02.951Z,32.58
2022-08-24T10:03:02.831Z,32.51
2022-08-24T10:04:02.837Z,32.56
2022-08-24T10:05:02.949Z,32.41
2022-08-24T10:06:02.873Z,32.53
2022-08-24T10:07:02.777Z,32.45
2022-08-24T10:08:02.969Z,32.43
2022-08-24T10:09:02.769Z,32.49
2022-08-24T10:10:02.748Z,32.43
2022-08-24T10:11:02.787Z,32.31
2022-08-24T10:12:02.754Z,32.33
2022-08-24T10:13:02.715Z,32.30
2022-08-24T10:14:02.699Z,32.33
2022-08-24T10:15:02.685Z,32.30
2022-08-24T10:16:02.688Z,32.34
2022-08-24T10:17:02.705Z,32.33
2022-08-24T10:18:02.864Z,32.33
2022-08-24T10:19:02.701Z,32.36
2022-08-24T10:20:02.666Z,32.30
2022-08-24T10:21:02.624Z,32.27
2022-08-24T10:22:02.630Z,32.34
2022-08-24T10:23:02.632Z,32.34
2022-08-24T10:24:02.588Z,32.34
2022-08-24T10:25:02.596Z,32.27
2022-08-24T10:26:02.574Z,32.29
2022-08-24T10:27:02.573Z,32.36
2022-08-24T10:28:02.735Z,32.27
2022-08-24T10:29:02.566Z,32.29
2022-08-24T10:30:02.520Z,32.29
2022-08-24T10:31:02.509Z,32.27
2022-08-24T10:32:02.566Z,32.19
2022-08-24T10:33:02.500Z,32.18
2022-08-24T10:34:02.507Z,32.30
2022-08-24T10:35:02.504Z,32.21
2022-08-24T10:36:02.466Z,32.19
2022-08-24T10:37:02.446Z,32.21
2022-08-24T10:38:02.693Z,32.11
2022-08-24T10:39:02.420Z,32.11
2022-08-24T10:40:06.000Z,32.11
2022-08-24T10:41:02.392Z,32.04
2022-08-24T10:42:02.404Z,32.14
2022-08-24T10:43:02.383Z,32.04
2022-08-24T10:44:02.370Z,31.92
2022-08-24T10:45:02.360Z,31.93
2022-08-24T10:46:02.520Z,31.97
2022-08-24T10:47:02.337Z,31.90
2022-08-24T10:48:02.439Z,31.87
2022-08-24T10:49:02.329Z,31.85
2022-08-24T10:50:02.306Z,31.84
2022-08-24T10:51:02.316Z,31.87
2022-08-24T10:52:02.291Z,31.89
2022-08-24T10:53:02.269Z,31.92
2022-08-24T10:54:02.257Z,31.84
2022-08-24T10:55:02.241Z,31.80
2022-08-24T10:56:02.297Z,31.81
2022-08-24T10:57:02.246Z,31.76
2022-08-24T10:58:02.229Z,31.76
2022-08-24T10:59:02.393Z,31.61
2022-08-24T11:00:02.190Z,31.69
2022-08-24T11:01:02.255Z,31.64
2022-08-24T11:02:02.231Z,31.59
2022-08-24T11:03:02.274Z,31.55
2022-08-24T11:04:02.256Z,31.52
2022-08-24T11:05:02.212Z,31.62
2022-08-24T11:06:02.108Z,31.55
2022-08-24T11:07:02.145Z,31.49
2022-08-24T11:08:02.409Z,31.55
2022-08-24T11:09:02.073Z,31.46
2022-08-24T11:10:02.082Z,31.37
2022-08-24T11:11:02.138Z,31.44
2022-08-24T11:12:02.046Z,31.52
2022-08-24T11:13:02.067Z,31.43
2022-08-24T11:14:02.069Z,31.47
2022-08-24T11:15:02.115Z,31.44
2022-08-24T11:16:02.068Z,31.55
2022-08-24T11:17:01.999Z,31.56
2022-08-24T11:18:02.097Z,31.55
2022-08-24T11:19:01.992Z,31.54
2022-08-24T11:20:01.953Z,31.55
2022-08-24T11:21:01.951Z,31.56
2022-08-24T11:22:01.933Z,31.55
2022-08-24T11:23:01.917Z,31.52
2022-08-24T11:24:01.926Z,31.56
2022-08-24T11:25:01.924Z,31.58
2022-08-24T11:26:01.928Z,31.54
2022-08-24T11:27:01.865Z,31.65
2022-08-24T11:28:01.853Z,31.62
2022-08-24T11:29:01.857Z,31.59
2022-08-24T11:30:01.842Z,31.69
2022-08-24T11:31:01.891Z,31.69
2022-08-24T11:32:01.854Z,31.66
2022-08-24T11:33:01.805Z,31.70
2022-08-24T11:34:01.793Z,31.74
2022-08-24T11:35:01.777Z,31.69
2022-08-24T11:36:01.807Z,31.65
2022-08-24T11:37:01.859Z,31.65
2022-08-24T11:38:01.741Z,31.54
2022-08-24T11:39:01.741Z,31.52
2022-08-24T11:40:01.785Z,31.52
2022-08-24T11:41:01.745Z,31.62
2022-08-24T11:42:01.738Z,31.58
2022-08-24T11:43:05.727Z,31.56
2022-08-24T11:44:01.670Z,31.55
2022-08-24T11:45:01.661Z,31.62
2022-08-24T11:46:01.687Z,31.52
2022-08-24T11:47:01.727Z,31.58
2022-08-24T11:48:01.733Z,31.61
2022-08-24T11:49:01.668Z,31.61
2022-08-24T11:50:01.616Z,31.71
2022-08-24T11:51:01.607Z,31.69
2022-08-24T11:52:01.579Z,31.73
2022-08-24T11:53:01.599Z,31.74
2022-08-24T11:54:01.562Z,31.66
2022-08-24T11:55:01.545Z,31.71
2022-08-24T11:56:01.530Z,31.77
2022-08-24T11:57:01.534Z,31.76
2022-08-24T11:58:01.538Z,31.71
2022-08-24T11:59:01.539Z,31.70
2022-08-24T12:00:01.541Z,31.66
2022-08-24T12:01:01.481Z,31.65
2022-08-24T12:02:01.612Z,31.59
2022-08-24T12:03:01.624Z,31.61
2022-08-24T12:04:01.453Z,31.55
2022-08-24T12:05:01.432Z,31.62
2022-08-24T12:06:01.420Z,31.51
2022-08-24T12:07:01.427Z,31.55
2022-08-24T12:08:01.482Z,31.55
2022-08-24T12:09:01.418Z,31.43
2022-08-24T12:10:01.407Z,31.49
2022-08-24T12:11:01.374Z,31.43
2022-08-24T12:12:01.459Z,31.42
2022-08-24T12:13:01.417Z,31.47
2022-08-24T12:14:01.340Z,31.43
2022-08-24T12:15:01.322Z,31.46
2022-08-24T12:16:01.363Z,31.40
2022-08-24T12:17:01.286Z,31.42
2022-08-24T12:18:01.287Z,31.36
2022-08-24T12:19:01.327Z,31.28
2022-08-24T12:20:01.272Z,31.28
2022-08-24T12:21:01.272Z,31.29
2022-08-24T12:22:01.285Z,31.36
2022-08-24T12:23:01.232Z,31.29
2022-08-24T12:24:01.310Z,31.28
2022-08-24T12:25:01.312Z,31.34
2022-08-24T12:26:01.220Z,31.39
2022-08-24T12:27:01.210Z,31.39
2022-08-24T12:28:01.227Z,31.39
2022-08-24T12:29:01.155Z,31.31
2022-08-24T12:30:01.165Z,31.42
2022-08-24T12:31:01.181Z,31.44
2022-08-24T12:32:01.147Z,31.29
2022-08-24T12:33:01.178Z,31.33
2022-08-24T12:34:01.154Z,31.34
2022-08-24T12:35:01.097Z,31.24
2022-08-24T12:36:01.073Z,31.37
2022-08-24T12:37:01.097Z,31.31
2022-08-24T12:38:01.184Z,31.40
2022-08-24T12:39:01.028Z,31.31
2022-08-24T12:40:01.118Z,31.34
2022-08-24T12:41:03.357Z,31.43
2022-08-24T12:42:01.035Z,31.40
2022-08-24T12:43:01.029Z,31.44
2022-08-24T12:44:00.988Z,31.46
2022-08-24T12:45:00.975Z,31.46
2022-08-24T12:46:01.121Z,31.46
2022-08-24T12:47:00.961Z,31.42
2022-08-24T12:48:00.977Z,31.39
2022-08-24T12:49:00.921Z,31.42
2022-08-24T12:50:00.969Z,31.33
2022-08-24T12:51:00.905Z,31.34
2022-08-24T12:52:00.901Z,31.25
2022-08-24T12:53:00.907Z,31.29